sensor_id;sensor_type;location;lat;lon;timestamp;pressure;altitude;pressure_sealevel;temperature;humidity
79028;BME280;68427;48.476;19.102;2023-05-07T00:01:04;97546.88;;;9.99;89.82
79028;BME280;68427;48.476;19.102;2023-05-07T00:03:31;97540.81;;;9.98;89.16
79028;BME280;68427;48.476;19.102;2023-05-07T00:05:59;97543.63;;;9.97;89.87
79028;BME280;68427;48.476;19.102;2023-05-07T00:08:24;97539.59;;;9.94;90.14
79028;BME280;68427;48.476;19.102;2023-05-07T00:10:50;97551.03;;;9.93;90.00
79028;BME280;68427;48.476;19.102;2023-05-07T00:13:16;97548.63;;;9.91;89.89
79028;BME280;68427;48.476;19.102;2023-05-07T00:15:41;97547.38;;;9.87;90.92
79028;BME280;68427;48.476;19.102;2023-05-07T00:18:07;97540.78;;;9.91;90.50
79028;BME280;68427;48.476;19.102;2023-05-07T00:20:33;97543.38;;;9.91;90.17
79028;BME280;68427;48.476;19.102;2023-05-07T00:23:00;97538.34;;;9.90;90.10
79028;BME280;68427;48.476;19.102;2023-05-07T00:25:25;97535.53;;;9.91;89.94
79028;BME280;68427;48.476;19.102;2023-05-07T00:27:51;97537.53;;;9.89;89.67
79028;BME280;68427;48.476;19.102;2023-05-07T00:30:17;97546.16;;;9.83;89.75
79028;BME280;68427;48.476;19.102;2023-05-07T00:32:42;97541.28;;;9.80;89.97
79028;BME280;68427;48.476;19.102;2023-05-07T00:35:11;97543.84;;;9.73;89.40
79028;BME280;68427;48.476;19.102;2023-05-07T00:37:36;97539.66;;;9.79;90.04
79028;BME280;68427;48.476;19.102;2023-05-07T00:40:05;97550.53;;;9.83;89.20
79028;BME280;68427;48.476;19.102;2023-05-07T00:42:32;97545.03;;;9.71;89.57
79028;BME280;68427;48.476;19.102;2023-05-07T00:44:58;97541.41;;;9.72;89.50
79028;BME280;68427;48.476;19.102;2023-05-07T00:47:25;97540.75;;;9.63;89.21
79028;BME280;68427;48.476;19.102;2023-05-07T00:49:50;97539.66;;;9.58;89.63
79028;BME280;68427;48.476;19.102;2023-05-07T00:52:17;97539.25;;;9.54;89.88
79028;BME280;68427;48.476;19.102;2023-05-07T00:54:45;97540.81;;;9.48;90.37
79028;BME280;68427;48.476;19.102;2023-05-07T00:57:12;97546.84;;;9.49;90.65
79028;BME280;68427;48.476;19.102;2023-05-07T00:59:38;97546.84;;;9.49;90.35
79028;BME280;68427;48.476;19.102;2023-05-07T01:02:05;97539.25;;;9.54;91.12
79028;BME280;68427;48.476;19.102;2023-05-07T01:04:30;97536.63;;;9.54;90.48
79028;BME280;68427;48.476;19.102;2023-05-07T01:06:57;97541.84;;;9.54;90.58
79028;BME280;68427;48.476;19.102;2023-05-07T01:09:24;97533.44;;;9.59;91.32
79028;BME280;68427;48.476;19.102;2023-05-07T01:11:50;97523.63;;;9.61;90.76
79028;BME280;68427;48.476;19.102;2023-05-07T01:14:18;97528.00;;;9.60;91.99
79028;BME280;68427;48.476;19.102;2023-05-07T01:16:46;97521.00;;;9.61;91.82
79028;BME280;68427;48.476;19.102;2023-05-07T01:19:12;97514.34;;;9.58;91.38
79028;BME280;68427;48.476;19.102;2023-05-07T01:21:45;97521.94;;;9.53;91.31
79028;BME280;68427;48.476;19.102;2023-05-07T01:24:13;97530.22;;;9.57;90.80
79028;BME280;68427;48.476;19.102;2023-05-07T01:26:39;97535.63;;;9.55;91.44
79028;BME280;68427;48.476;19.102;2023-05-07T01:29:05;97532.75;;;9.50;91.04
79028;BME280;68427;48.476;19.102;2023-05-07T01:31:31;97529.34;;;9.49;91.22
79028;BME280;68427;48.476;19.102;2023-05-07T01:33:59;97529.50;;;9.48;91.25
79028;BME280;68427;48.476;19.102;2023-05-07T01:36:27;97524.25;;;9.41;90.19
79028;BME280;68427;48.476;19.102;2023-05-07T01:38:55;97527.56;;;9.35;90.99
79028;BME280;68427;48.476;19.102;2023-05-07T01:41:24;97529.94;;;9.30;91.26
79028;BME280;68427;48.476;19.102;2023-05-07T01:43:50;97528.41;;;9.36;91.66
79028;BME280;68427;48.476;19.102;2023-05-07T01:46:18;97523.34;;;9.34;91.21
79028;BME280;68427;48.476;19.102;2023-05-07T01:48:44;97525.97;;;9.34;91.27
79028;BME280;68427;48.476;19.102;2023-05-07T01:51:11;97517.31;;;9.34;91.04
79028;BME280;68427;48.476;19.102;2023-05-07T01:53:37;97526.41;;;9.38;91.56
79028;BME280;68427;48.476;19.102;2023-05-07T01:56:04;97515.59;;;9.41;91.03
79028;BME280;68427;48.476;19.102;2023-05-07T01:58:32;97526.66;;;9.43;90.67
79028;BME280;68427;48.476;19.102;2023-05-07T02:00:57;97525.28;;;9.47;90.91
79028;BME280;68427;48.476;19.102;2023-05-07T02:03:23;97520.88;;;9.47;91.06
79028;BME280;68427;48.476;19.102;2023-05-07T02:05:49;97517.69;;;9.52;90.69
79028;BME280;68427;48.476;19.102;2023-05-07T02:08:14;97512.91;;;9.56;90.48
79028;BME280;68427;48.476;19.102;2023-05-07T02:10:40;97515.47;;;9.49;90.13
79028;BME280;68427;48.476;19.102;2023-05-07T02:13:06;97516.25;;;9.49;90.78
79028;BME280;68427;48.476;19.102;2023-05-07T02:15:33;97517.91;;;9.50;90.85
79028;BME280;68427;48.476;19.102;2023-05-07T02:18:02;97508.41;;;9.49;90.77
79028;BME280;68427;48.476;19.102;2023-05-07T02:20:28;97510.31;;;9.56;90.27
79028;BME280;68427;48.476;19.102;2023-05-07T02:22:54;97505.81;;;9.49;90.47
79028;BME280;68427;48.476;19.102;2023-05-07T02:25:19;97510.63;;;9.46;90.16
79028;BME280;68427;48.476;19.102;2023-05-07T02:27:45;97511.53;;;9.38;90.62
79028;BME280;68427;48.476;19.102;2023-05-07T02:30:11;97512.53;;;9.37;91.41
79028;BME280;68427;48.476;19.102;2023-05-07T02:32:38;97505.94;;;9.41;91.09
79028;BME280;68427;48.476;19.102;2023-05-07T02:35:05;97518.25;;;9.47;90.42
79028;BME280;68427;48.476;19.102;2023-05-07T02:37:30;97509.22;;;9.50;90.39
79028;BME280;68427;48.476;19.102;2023-05-07T02:39:56;97513.66;;;9.49;90.44
79028;BME280;68427;48.476;19.102;2023-05-07T02:42:22;97517.06;;;9.50;90.00
79028;BME280;68427;48.476;19.102;2023-05-07T02:44:47;97519.88;;;9.48;90.00
79028;BME280;68427;48.476;19.102;2023-05-07T02:47:14;97517.03;;;9.43;90.08
79028;BME280;68427;48.476;19.102;2023-05-07T02:49:42;97514.50;;;9.35;89.88
79028;BME280;68427;48.476;19.102;2023-05-07T02:52:07;97515.19;;;9.22;90.15
79028;BME280;68427;48.476;19.102;2023-05-07T02:54:33;97516.19;;;9.21;90.06
79028;BME280;68427;48.476;19.102;2023-05-07T02:56:59;97515.41;;;9.21;90.19
79028;BME280;68427;48.476;19.102;2023-05-07T02:59:26;97514.84;;;9.25;89.99
79028;BME280;68427;48.476;19.102;2023-05-07T03:01:51;97531.75;;;9.29;89.90
79028;BME280;68427;48.476;19.102;2023-05-07T03:04:17;97533.72;;;9.27;90.59
79028;BME280;68427;48.476;19.102;2023-05-07T03:06:44;97534.28;;;9.23;90.71
79028;BME280;68427;48.476;19.102;2023-05-07T03:09:10;97529.25;;;9.21;90.76
79028;BME280;68427;48.476;19.102;2023-05-07T03:11:36;97536.91;;;9.23;90.67
79028;BME280;68427;48.476;19.102;2023-05-07T03:14:02;97528.88;;;9.24;90.44
79028;BME280;68427;48.476;19.102;2023-05-07T03:16:28;97541.56;;;9.27;90.64
79028;BME280;68427;48.476;19.102;2023-05-07T03:18:53;97534.91;;;9.25;90.32
79028;BME280;68427;48.476;19.102;2023-05-07T03:21:19;97537.09;;;9.21;91.07
79028;BME280;68427;48.476;19.102;2023-05-07T03:23:46;97545.31;;;9.18;90.85
79028;BME280;68427;48.476;19.102;2023-05-07T03:26:12;97551.53;;;9.17;91.25
79028;BME280;68427;48.476;19.102;2023-05-07T03:28:37;97553.72;;;9.14;91.08
79028;BME280;68427;48.476;19.102;2023-05-07T03:31:03;97545.97;;;9.05;91.23
79028;BME280;68427;48.476;19.102;2023-05-07T03:33:29;97548.91;;;9.17;91.54
79028;BME280;68427;48.476;19.102;2023-05-07T03:35:55;97554.59;;;9.21;91.43
79028;BME280;68427;48.476;19.102;2023-05-07T03:38:20;97554.13;;;9.17;91.58
79028;BME280;68427;48.476;19.102;2023-05-07T03:40:47;97560.22;;;9.03;91.81
79028;BME280;68427;48.476;19.102;2023-05-07T03:43:13;97561.09;;;9.10;91.87
79028;BME280;68427;48.476;19.102;2023-05-07T03:45:38;97570.94;;;9.08;91.96
79028;BME280;68427;48.476;19.102;2023-05-07T03:48:04;97567.69;;;9.06;91.75
79028;BME280;68427;48.476;19.102;2023-05-07T03:50:30;97563.25;;;9.06;92.07
79028;BME280;68427;48.476;19.102;2023-05-07T03:52:55;97565.88;;;9.06;92.36
79028;BME280;68427;48.476;19.102;2023-05-07T03:55:21;97565.44;;;9.03;92.36
79028;BME280;68427;48.476;19.102;2023-05-07T03:57:48;97560.50;;;8.93;92.69
79028;BME280;68427;48.476;19.102;2023-05-07T04:00:14;97558.50;;;8.95;92.49
79028;BME280;68427;48.476;19.102;2023-05-07T04:02:40;97564.63;;;9.02;92.83
79028;BME280;68427;48.476;19.102;2023-05-07T04:05:06;97572.63;;;9.16;92.87
79028;BME280;68427;48.476;19.102;2023-05-07T04:07:32;97577.47;;;9.19;92.92
79028;BME280;68427;48.476;19.102;2023-05-07T04:09:57;97570.63;;;9.18;92.94
79028;BME280;68427;48.476;19.102;2023-05-07T04:12:23;97580.09;;;9.19;92.81
79028;BME280;68427;48.476;19.102;2023-05-07T04:14:50;97579.47;;;9.17;92.61
79028;BME280;68427;48.476;19.102;2023-05-07T04:17:16;97576.94;;;9.23;92.59
79028;BME280;68427;48.476;19.102;2023-05-07T04:19:41;97584.50;;;9.18;92.85
79028;BME280;68427;48.476;19.102;2023-05-07T04:22:10;97580.25;;;9.17;92.98
79028;BME280;68427;48.476;19.102;2023-05-07T04:24:36;97575.66;;;9.19;93.10
79028;BME280;68427;48.476;19.102;2023-05-07T04:27:01;97577.19;;;9.28;92.84
79028;BME280;68427;48.476;19.102;2023-05-07T04:29:27;97582.66;;;9.34;92.92
79028;BME280;68427;48.476;19.102;2023-05-07T04:31:55;97577.41;;;9.48;93.06
79028;BME280;68427;48.476;19.102;2023-05-07T04:34:21;97581.06;;;9.54;92.43
79028;BME280;68427;48.476;19.102;2023-05-07T04:36:47;97591.78;;;9.59;92.69
79028;BME280;68427;48.476;19.102;2023-05-07T04:39:13;97589.41;;;9.64;92.42
79028;BME280;68427;48.476;19.102;2023-05-07T04:41:39;97599.41;;;9.76;91.72
79028;BME280;68427;48.476;19.102;2023-05-07T04:44:04;97597.38;;;9.78;92.45
79028;BME280;68427;48.476;19.102;2023-05-07T04:46:31;97612.78;;;9.87;92.08
79028;BME280;68427;48.476;19.102;2023-05-07T04:48:58;97609.28;;;10.02;91.96
79028;BME280;68427;48.476;19.102;2023-05-07T04:51:24;97610.53;;;10.06;92.13
79028;BME280;68427;48.476;19.102;2023-05-07T04:53:49;97600.72;;;10.14;91.68
79028;BME280;68427;48.476;19.102;2023-05-07T04:56:15;97601.16;;;10.18;92.05
79028;BME280;68427;48.476;19.102;2023-05-07T04:58:41;97599.66;;;10.30;91.03
79028;BME280;68427;48.476;19.102;2023-05-07T05:01:07;97605.63;;;10.46;91.43
79028;BME280;68427;48.476;19.102;2023-05-07T05:03:33;97596.84;;;10.60;91.43
79028;BME280;68427;48.476;19.102;2023-05-07T05:06:00;97605.63;;;10.74;90.52
79028;BME280;68427;48.476;19.102;2023-05-07T05:08:25;97608.69;;;10.84;90.87
79028;BME280;68427;48.476;19.102;2023-05-07T05:10:51;97604.88;;;10.93;90.29
79028;BME280;68427;48.476;19.102;2023-05-07T05:13:17;97610.78;;;11.02;89.64
79028;BME280;68427;48.476;19.102;2023-05-07T05:15:43;97614.88;;;11.11;89.42
79028;BME280;68427;48.476;19.102;2023-05-07T05:18:08;97617.28;;;11.13;89.58
79028;BME280;68427;48.476;19.102;2023-05-07T05:20:34;97615.47;;;11.13;89.14
79028;BME280;68427;48.476;19.102;2023-05-07T05:23:01;97614.34;;;11.29;88.07
79028;BME280;68427;48.476;19.102;2023-05-07T05:25:27;97612.56;;;11.43;88.00
79028;BME280;68427;48.476;19.102;2023-05-07T05:27:53;97607.75;;;11.53;88.14
79028;BME280;68427;48.476;19.102;2023-05-07T05:30:20;97612.81;;;11.68;87.57
79028;BME280;68427;48.476;19.102;2023-05-07T05:32:45;97606.03;;;11.87;86.88
79028;BME280;68427;48.476;19.102;2023-05-07T05:35:11;97607.47;;;12.03;86.21
79028;BME280;68427;48.476;19.102;2023-05-07T05:37:37;97607.66;;;12.21;86.21
79028;BME280;68427;48.476;19.102;2023-05-07T05:40:05;97608.47;;;12.28;85.29
79028;BME280;68427;48.476;19.102;2023-05-07T05:42:31;97608.25;;;12.50;84.02
79028;BME280;68427;48.476;19.102;2023-05-07T05:44:56;97607.56;;;12.88;82.70
79028;BME280;68427;48.476;19.102;2023-05-07T05:47:22;97613.69;;;13.40;81.31
79028;BME280;68427;48.476;19.102;2023-05-07T05:49:48;97610.03;;;13.79;79.94
79028;BME280;68427;48.476;19.102;2023-05-07T05:52:14;97603.59;;;13.69;79.23
79028;BME280;68427;48.476;19.102;2023-05-07T05:54:40;97605.53;;;13.55;80.20
79028;BME280;68427;48.476;19.102;2023-05-07T05:57:07;97604.41;;;13.37;79.69
79028;BME280;68427;48.476;19.102;2023-05-07T05:59:32;97598.94;;;13.26;80.01
79028;BME280;68427;48.476;19.102;2023-05-07T06:01:58;97599.28;;;13.81;79.39
79028;BME280;68427;48.476;19.102;2023-05-07T06:04:24;97607.94;;;14.20;78.02
79028;BME280;68427;48.476;19.102;2023-05-07T06:06:50;97592.03;;;14.52;77.11
79028;BME280;68427;48.476;19.102;2023-05-07T06:09:15;97597.78;;;14.67;76.70
79028;BME280;68427;48.476;19.102;2023-05-07T06:11:41;97592.75;;;15.21;75.16
79028;BME280;68427;48.476;19.102;2023-05-07T06:14:08;97595.38;;;15.69;73.11
79028;BME280;68427;48.476;19.102;2023-05-07T06:16:33;97601.81;;;16.27;70.10
79028;BME280;68427;48.476;19.102;2023-05-07T06:18:59;97600.09;;;16.45;68.30
79028;BME280;68427;48.476;19.102;2023-05-07T06:21:25;97597.00;;;16.95;67.57
79028;BME280;68427;48.476;19.102;2023-05-07T06:23:50;97602.28;;;16.95;67.86
79028;BME280;68427;48.476;19.102;2023-05-07T06:26:17;97601.19;;;17.19;67.33
79028;BME280;68427;48.476;19.102;2023-05-07T06:28:43;97609.69;;;17.62;64.43
79028;BME280;68427;48.476;19.102;2023-05-07T06:31:14;97601.84;;;18.46;61.88
79028;BME280;68427;48.476;19.102;2023-05-07T06:33:40;97597.28;;;18.81;62.29
79028;BME280;68427;48.476;19.102;2023-05-07T06:36:06;97606.09;;;19.47;58.89
79028;BME280;68427;48.476;19.102;2023-05-07T06:38:32;97605.63;;;19.77;58.52
79028;BME280;68427;48.476;19.102;2023-05-07T06:40:58;97605.72;;;20.20;58.18
79028;BME280;68427;48.476;19.102;2023-05-07T06:43:23;97606.22;;;20.49;56.50
79028;BME280;68427;48.476;19.102;2023-05-07T06:45:49;97602.03;;;21.06;54.44
79028;BME280;68427;48.476;19.102;2023-05-07T06:48:16;97598.78;;;21.62;53.06
79028;BME280;68427;48.476;19.102;2023-05-07T06:50:42;97602.88;;;22.31;51.57
79028;BME280;68427;48.476;19.102;2023-05-07T06:53:08;97610.25;;;23.00;50.26
79028;BME280;68427;48.476;19.102;2023-05-07T06:55:33;97604.38;;;22.93;48.58
79028;BME280;68427;48.476;19.102;2023-05-07T06:57:59;97596.72;;;23.41;48.05
79028;BME280;68427;48.476;19.102;2023-05-07T07:00:26;97593.50;;;23.39;46.61
79028;BME280;68427;48.476;19.102;2023-05-07T07:02:52;97603.50;;;24.12;44.41
79028;BME280;68427;48.476;19.102;2023-05-07T07:05:19;97591.41;;;24.78;43.34
79028;BME280;68427;48.476;19.102;2023-05-07T07:07:45;97586.69;;;25.18;41.99
79028;BME280;68427;48.476;19.102;2023-05-07T07:10:17;97588.31;;;25.38;42.53
79028;BME280;68427;48.476;19.102;2023-05-07T07:12:43;97584.41;;;25.31;42.15
79028;BME280;68427;48.476;19.102;2023-05-07T07:15:10;97590.78;;;25.11;42.61
79028;BME280;68427;48.476;19.102;2023-05-07T07:17:35;97586.22;;;25.54;41.11
79028;BME280;68427;48.476;19.102;2023-05-07T07:20:01;97578.75;;;25.89;40.34
79028;BME280;68427;48.476;19.102;2023-05-07T07:22:29;97582.97;;;26.75;38.69
79028;BME280;68427;48.476;19.102;2023-05-07T07:24:55;97575.69;;;27.03;37.12
79028;BME280;68427;48.476;19.102;2023-05-07T07:27:20;97578.69;;;26.87;37.40
79028;BME280;68427;48.476;19.102;2023-05-07T07:29:46;97572.66;;;27.46;38.04
79028;BME280;68427;48.476;19.102;2023-05-07T07:32:12;97572.88;;;27.49;36.31
79028;BME280;68427;48.476;19.102;2023-05-07T07:34:37;97561.72;;;28.01;35.88
79028;BME280;68427;48.476;19.102;2023-05-07T07:37:03;97573.34;;;27.88;35.21
79028;BME280;68427;48.476;19.102;2023-05-07T07:39:32;97576.16;;;27.46;34.66
79028;BME280;68427;48.476;19.102;2023-05-07T07:41:58;97579.06;;;27.72;33.70
79028;BME280;68427;48.476;19.102;2023-05-07T07:44:24;97568.72;;;28.56;33.50
79028;BME280;68427;48.476;19.102;2023-05-07T07:46:50;97578.16;;;28.76;33.45
79028;BME280;68427;48.476;19.102;2023-05-07T07:49:16;97575.81;;;28.83;34.16
79028;BME280;68427;48.476;19.102;2023-05-07T07:51:42;97579.56;;;28.64;32.72
79028;BME280;68427;48.476;19.102;2023-05-07T07:54:07;97580.78;;;28.98;32.54
79028;BME280;68427;48.476;19.102;2023-05-07T07:56:34;97579.78;;;29.43;31.36
79028;BME280;68427;48.476;19.102;2023-05-07T07:59:00;97579.66;;;30.00;32.10
79028;BME280;68427;48.476;19.102;2023-05-07T08:01:26;97582.66;;;29.38;32.27
79028;BME280;68427;48.476;19.102;2023-05-07T08:03:51;97583.47;;;28.58;33.19
79028;BME280;68427;48.476;19.102;2023-05-07T08:06:17;97586.03;;;29.03;32.90
79028;BME280;68427;48.476;19.102;2023-05-07T08:08:43;97582.47;;;29.25;31.98
79028;BME280;68427;48.476;19.102;2023-05-07T08:11:09;97573.69;;;28.62;32.71
79028;BME280;68427;48.476;19.102;2023-05-07T08:13:36;97580.13;;;28.30;33.29
79028;BME280;68427;48.476;19.102;2023-05-07T08:16:03;97582.00;;;28.83;31.33
79028;BME280;68427;48.476;19.102;2023-05-07T08:18:29;97582.97;;;29.54;30.16
79028;BME280;68427;48.476;19.102;2023-05-07T08:20:55;97586.31;;;30.11;29.65
79028;BME280;68427;48.476;19.102;2023-05-07T08:23:21;97579.66;;;30.73;27.29
79028;BME280;68427;48.476;19.102;2023-05-07T08:25:46;97582.41;;;31.75;27.89
79028;BME280;68427;48.476;19.102;2023-05-07T08:28:12;97589.03;;;31.14;27.36
79028;BME280;68427;48.476;19.102;2023-05-07T08:30:39;97583.69;;;31.98;26.63
79028;BME280;68427;48.476;19.102;2023-05-07T08:33:04;97585.53;;;31.85;25.01
79028;BME280;68427;48.476;19.102;2023-05-07T08:35:30;97592.00;;;31.93;25.07
79028;BME280;68427;48.476;19.102;2023-05-07T08:37:56;97589.28;;;32.60;25.70
79028;BME280;68427;48.476;19.102;2023-05-07T08:40:25;97586.84;;;32.79;25.13
79028;BME280;68427;48.476;19.102;2023-05-07T08:42:52;97587.03;;;32.49;23.17
79028;BME280;68427;48.476;19.102;2023-05-07T08:45:19;97582.34;;;32.38;23.64
79028;BME280;68427;48.476;19.102;2023-05-07T08:47:50;97588.84;;;32.58;24.86
79028;BME280;68427;48.476;19.102;2023-05-07T08:50:17;97581.72;;;33.51;21.62
79028;BME280;68427;48.476;19.102;2023-05-07T08:52:43;97577.28;;;33.71;21.74
79028;BME280;68427;48.476;19.102;2023-05-07T08:55:09;97581.13;;;34.27;21.88
79028;BME280;68427;48.476;19.102;2023-05-07T08:57:35;97570.19;;;33.30;22.88
79028;BME280;68427;48.476;19.102;2023-05-07T09:00:01;97569.75;;;33.28;22.29
79028;BME280;68427;48.476;19.102;2023-05-07T09:02:27;97574.41;;;34.08;22.02
79028;BME280;68427;48.476;19.102;2023-05-07T09:04:54;97578.50;;;34.30;22.31
79028;BME280;68427;48.476;19.102;2023-05-07T09:07:20;97578.09;;;33.88;22.57
79028;BME280;68427;48.476;19.102;2023-05-07T09:09:46;97574.88;;;33.70;22.23
79028;BME280;68427;48.476;19.102;2023-05-07T09:12:12;97580.28;;;34.10;20.10
79028;BME280;68427;48.476;19.102;2023-05-07T09:14:38;97578.22;;;34.35;18.64
79028;BME280;68427;48.476;19.102;2023-05-07T09:17:04;97572.94;;;34.87;19.11
79028;BME280;68427;48.476;19.102;2023-05-07T09:19:30;97572.34;;;33.89;21.71
79028;BME280;68427;48.476;19.102;2023-05-07T09:22:00;97574.47;;;34.40;20.44
79028;BME280;68427;48.476;19.102;2023-05-07T09:24:26;97578.09;;;33.88;20.88
79028;BME280;68427;48.476;19.102;2023-05-07T09:26:53;97568.53;;;34.06;18.40
79028;BME280;68427;48.476;19.102;2023-05-07T09:29:20;97581.72;;;34.20;20.12
79028;BME280;68427;48.476;19.102;2023-05-07T09:31:46;97573.66;;;33.95;21.12
79028;BME280;68427;48.476;19.102;2023-05-07T09:34:12;97577.31;;;33.47;21.40
79028;BME280;68427;48.476;19.102;2023-05-07T09:36:37;97571.22;;;33.38;18.95
79028;BME280;68427;48.476;19.102;2023-05-07T09:39:04;97573.81;;;33.87;19.93
79028;BME280;68427;48.476;19.102;2023-05-07T09:41:30;97564.13;;;33.21;21.30
79028;BME280;68427;48.476;19.102;2023-05-07T09:43:57;97563.31;;;33.08;20.94
79028;BME280;68427;48.476;19.102;2023-05-07T09:46:27;97563.31;;;34.29;20.60
79028;BME280;68427;48.476;19.102;2023-05-07T09:48:57;97567.03;;;33.81;19.85
79028;BME280;68427;48.476;19.102;2023-05-07T09:51:28;97550.38;;;33.42;19.12
79028;BME280;68427;48.476;19.102;2023-05-07T09:53:56;97555.25;;;33.48;19.43
79028;BME280;68427;48.476;19.102;2023-05-07T09:56:24;97550.91;;;33.88;20.11
79028;BME280;68427;48.476;19.102;2023-05-07T09:58:51;97549.91;;;33.52;20.31
79028;BME280;68427;48.476;19.102;2023-05-07T10:01:18;97551.09;;;34.07;20.09
79028;BME280;68427;48.476;19.102;2023-05-07T10:03:48;97551.69;;;33.07;21.16
79028;BME280;68427;48.476;19.102;2023-05-07T10:06:15;97552.06;;;32.36;22.77
79028;BME280;68427;48.476;19.102;2023-05-07T10:08:42;97557.78;;;31.89;22.74
79028;BME280;68427;48.476;19.102;2023-05-07T10:11:09;97551.81;;;31.32;23.22
79028;BME280;68427;48.476;19.102;2023-05-07T10:13:37;97548.66;;;31.30;23.57
79028;BME280;68427;48.476;19.102;2023-05-07T10:16:04;97552.97;;;30.63;25.47
79028;BME280;68427;48.476;19.102;2023-05-07T10:18:30;97546.41;;;30.73;25.16
79028;BME280;68427;48.476;19.102;2023-05-07T10:21:02;97548.66;;;30.62;24.43
79028;BME280;68427;48.476;19.102;2023-05-07T10:23:31;97553.41;;;30.18;25.77
79028;BME280;68427;48.476;19.102;2023-05-07T10:25:58;97549.00;;;30.99;25.04
79028;BME280;68427;48.476;19.102;2023-05-07T10:28:25;97545.50;;;31.28;22.68
79028;BME280;68427;48.476;19.102;2023-05-07T10:31:01;97539.00;;;31.50;22.59
79028;BME280;68427;48.476;19.102;2023-05-07T10:33:31;97544.03;;;31.31;23.21
79028;BME280;68427;48.476;19.102;2023-05-07T10:36:00;97541.50;;;31.55;24.67
79028;BME280;68427;48.476;19.102;2023-05-07T10:38:27;97540.94;;;30.82;22.77
79028;BME280;68427;48.476;19.102;2023-05-07T10:40:53;97547.44;;;31.19;23.57
79028;BME280;68427;48.476;19.102;2023-05-07T10:43:19;97545.41;;;32.00;21.95
79028;BME280;68427;48.476;19.102;2023-05-07T10:46:10;97540.47;;;31.81;22.89
79028;BME280;68427;48.476;19.102;2023-05-07T10:49:10;97536.81;;;32.43;22.83
79028;BME280;68427;48.476;19.102;2023-05-07T10:51:37;97527.09;;;32.42;22.31
79028;BME280;68427;48.476;19.102;2023-05-07T10:54:26;97527.69;;;32.48;21.41
79028;BME280;68427;48.476;19.102;2023-05-07T10:56:52;97531.56;;;32.84;21.12
79028;BME280;68427;48.476;19.102;2023-05-07T10:59:31;97531.84;;;32.33;20.34
79028;BME280;68427;48.476;19.102;2023-05-07T11:02:00;97533.91;;;32.85;20.98
79028;BME280;68427;48.476;19.102;2023-05-07T11:04:29;97525.34;;;32.83;18.90
79028;BME280;68427;48.476;19.102;2023-05-07T11:07:28;97531.44;;;31.98;21.88
79028;BME280;68427;48.476;19.102;2023-05-07T11:10:01;97528.28;;;32.54;22.23
79028;BME280;68427;48.476;19.102;2023-05-07T11:12:51;97528.06;;;32.13;22.53
79028;BME280;68427;48.476;19.102;2023-05-07T11:15:42;97532.00;;;31.19;21.90
79028;BME280;68427;48.476;19.102;2023-05-07T11:18:11;97525.59;;;31.24;23.48
79028;BME280;68427;48.476;19.102;2023-05-07T11:20:54;97527.50;;;31.53;22.83
79028;BME280;68427;48.476;19.102;2023-05-07T11:23:58;97528.97;;;31.21;22.16
79028;BME280;68427;48.476;19.102;2023-05-07T11:26:24;97528.97;;;30.62;22.29
79028;BME280;68427;48.476;19.102;2023-05-07T11:28:51;97528.28;;;30.35;23.57
79028;BME280;68427;48.476;19.102;2023-05-07T11:31:21;97524.16;;;30.11;22.92
79028;BME280;68427;48.476;19.102;2023-05-07T11:33:49;97523.84;;;30.13;22.22
79028;BME280;68427;48.476;19.102;2023-05-07T11:36:15;97521.38;;;29.90;23.24
79028;BME280;68427;48.476;19.102;2023-05-07T11:38:41;97522.34;;;29.77;23.63
79028;BME280;68427;48.476;19.102;2023-05-07T11:41:07;97522.00;;;29.44;25.16
79028;BME280;68427;48.476;19.102;2023-05-07T11:43:33;97521.13;;;29.00;24.31
79028;BME280;68427;48.476;19.102;2023-05-07T11:46:09;97515.56;;;28.96;25.49
79028;BME280;68427;48.476;19.102;2023-05-07T11:48:35;97514.72;;;28.78;24.39
79028;BME280;68427;48.476;19.102;2023-05-07T11:51:03;97513.00;;;28.82;23.44
79028;BME280;68427;48.476;19.102;2023-05-07T11:53:35;97513.22;;;28.55;23.81
79028;BME280;68427;48.476;19.102;2023-05-07T11:56:06;97515.13;;;28.23;24.06
79028;BME280;68427;48.476;19.102;2023-05-07T11:58:32;97517.59;;;28.11;24.48
79028;BME280;68427;48.476;19.102;2023-05-07T12:00:58;97514.50;;;28.26;26.38
79028;BME280;68427;48.476;19.102;2023-05-07T12:03:23;97526.44;;;28.11;23.61
79028;BME280;68427;48.476;19.102;2023-05-07T12:05:49;97522.66;;;27.45;24.30
79028;BME280;68427;48.476;19.102;2023-05-07T12:08:17;97523.34;;;27.73;24.66
79028;BME280;68427;48.476;19.102;2023-05-07T12:10:44;97530.25;;;27.65;24.06
79028;BME280;68427;48.476;19.102;2023-05-07T12:13:16;97528.91;;;27.76;25.96
79028;BME280;68427;48.476;19.102;2023-05-07T12:15:42;97526.09;;;27.59;25.34
79028;BME280;68427;48.476;19.102;2023-05-07T12:18:07;97518.06;;;27.68;25.20
79028;BME280;68427;48.476;19.102;2023-05-07T12:20:34;97521.03;;;27.21;24.43
79028;BME280;68427;48.476;19.102;2023-05-07T12:23:01;97510.03;;;27.31;23.26
79028;BME280;68427;48.476;19.102;2023-05-07T12:25:30;97512.84;;;27.26;24.82
79028;BME280;68427;48.476;19.102;2023-05-07T12:27:55;97520.69;;;27.36;24.25
79028;BME280;68427;48.476;19.102;2023-05-07T12:30:24;97515.09;;;27.33;24.14
79028;BME280;68427;48.476;19.102;2023-05-07T12:32:52;97505.06;;;27.25;24.19
79028;BME280;68427;48.476;19.102;2023-05-07T12:35:26;97507.59;;;27.21;24.57
79028;BME280;68427;48.476;19.102;2023-05-07T12:37:54;97505.81;;;26.89;26.81
79028;BME280;68427;48.476;19.102;2023-05-07T12:40:20;97506.00;;;26.92;27.34
79028;BME280;68427;48.476;19.102;2023-05-07T12:42:52;97507.50;;;26.99;28.64
79028;BME280;68427;48.476;19.102;2023-05-07T12:45:19;97504.22;;;26.74;26.02
79028;BME280;68427;48.476;19.102;2023-05-07T12:47:44;97497.75;;;26.89;24.92
79028;BME280;68427;48.476;19.102;2023-05-07T12:50:11;97499.81;;;26.50;26.01
79028;BME280;68427;48.476;19.102;2023-05-07T12:52:38;97505.19;;;26.50;26.78